createdAt,value
2017-08-11T00:01:19.836Z,13.00
2017-08-11T00:03:45.967Z,12.00
2017-08-11T00:06:12.100Z,8.27
2017-08-11T00:08:38.284Z,9.83
2017-08-11T00:11:04.409Z,12.13
2017-08-11T00:13:30.535Z,10.57
2017-08-11T00:15:56.699Z,10.57
2017-08-11T00:18:22.846Z,15.43
2017-08-11T00:20:48.966Z,10.20
2017-08-11T00:23:15.131Z,18.20
2017-08-11T00:25:41.267Z,9.77
2017-08-11T00:28:07.422Z,11.57
2017-08-11T00:30:33.566Z,11.50
2017-08-11T00:32:59.701Z,13.10
2017-08-11T00:35:25.862Z,13.73
2017-08-11T00:37:51.979Z,12.40
2017-08-11T00:40:18.138Z,16.77
2017-08-11T00:42:44.266Z,15.17
2017-08-11T00:45:10.394Z,15.07
2017-08-11T00:47:36.513Z,14.97
2017-08-11T00:50:02.647Z,15.70
2017-08-11T00:52:28.755Z,17.70
2017-08-11T00:54:54.906Z,12.57
2017-08-11T00:57:21.011Z,11.13
2017-08-11T00:59:47.147Z,15.83
2017-08-11T01:02:13.289Z,12.93
2017-08-11T01:04:39.436Z,12.23
2017-08-11T01:07:05.603Z,24.10
2017-08-11T01:09:31.746Z,15.00
2017-08-11T01:11:57.936Z,20.33
2017-08-11T01:14:24.109Z,17.53
2017-08-11T01:16:50.256Z,14.60
2017-08-11T01:19:16.423Z,17.10
2017-08-11T01:21:42.591Z,20.97
2017-08-11T01:24:08.755Z,13.00
2017-08-11T01:26:34.907Z,13.73
2017-08-11T01:29:01.066Z,15.23
2017-08-11T01:31:27.255Z,14.10
2017-08-11T01:33:53.428Z,13.80
2017-08-11T01:36:19.614Z,13.90
2017-08-11T01:38:45.767Z,15.50
2017-08-11T01:41:11.948Z,15.63
2017-08-11T01:43:38.110Z,13.27
2017-08-11T01:46:04.291Z,18.60
2017-08-11T01:48:30.487Z,21.27
2017-08-11T01:50:56.655Z,16.60
2017-08-11T01:53:22.834Z,21.93
2017-08-11T01:55:49.009Z,11.57
2017-08-11T01:58:15.171Z,13.73
2017-08-11T02:00:41.349Z,15.47
2017-08-11T02:03:07.522Z,21.30
2017-08-11T02:05:33.712Z,19.57
2017-08-11T02:07:59.925Z,17.93
2017-08-11T02:10:26.127Z,11.20
2017-08-11T02:12:52.322Z,14.70
2017-08-11T02:15:18.494Z,21.23
2017-08-11T02:17:44.680Z,15.53
2017-08-11T02:20:10.835Z,12.77
2017-08-11T02:22:37.011Z,17.70
2017-08-11T02:25:03.180Z,19.53
2017-08-11T02:27:29.318Z,17.63
2017-08-11T02:29:55.468Z,15.47
2017-08-11T02:32:21.606Z,16.27
2017-08-11T02:34:47.758Z,19.73
2017-08-11T02:37:13.916Z,19.30
2017-08-11T02:39:40.070Z,18.37
2017-08-11T02:42:06.198Z,21.13
2017-08-11T02:44:32.351Z,20.77
2017-08-11T02:46:58.503Z,22.33
2017-08-11T02:49:24.655Z,15.70
2017-08-11T02:51:50.786Z,23.50
2017-08-11T02:54:16.948Z,19.97
2017-08-11T02:56:43.074Z,24.23
2017-08-11T02:59:09.203Z,23.60
2017-08-11T03:01:35.356Z,24.90
2017-08-11T03:04:01.520Z,24.80
2017-08-11T03:06:27.713Z,20.80
2017-08-11T03:08:53.907Z,19.90
2017-08-11T03:11:20.058Z,19.97
2017-08-11T03:13:46.186Z,30.43
2017-08-11T03:16:12.358Z,23.40
2017-08-11T03:18:38.518Z,28.60
2017-08-11T03:21:04.680Z,23.50
2017-08-11T03:23:30.814Z,28.07
2017-08-11T03:25:56.965Z,26.40
2017-08-11T03:28:23.090Z,19.10
2017-08-11T03:30:49.254Z,20.10
2017-08-11T03:33:15.380Z,17.63
2017-08-11T03:35:41.506Z,22.67
2017-08-11T03:38:07.651Z,25.33
2017-08-11T03:40:33.786Z,27.73
2017-08-11T03:42:59.934Z,27.70
2017-08-11T03:45:32.947Z,28.00
2017-08-11T03:47:59.103Z,29.93
2017-08-11T03:50:25.248Z,29.60
2017-08-11T03:52:51.402Z,33.90
2017-08-11T03:55:17.543Z,26.93
2017-08-11T03:57:43.682Z,26.50
2017-08-11T04:00:09.818Z,31.23
2017-08-11T04:02:35.979Z,32.60
2017-08-11T04:05:02.132Z,27.63
2017-08-11T04:07:28.307Z,38.63
2017-08-11T04:09:54.438Z,28.37
2017-08-11T04:12:20.566Z,38.20
2017-08-11T04:14:46.718Z,32.50
2017-08-11T04:17:12.834Z,31.20
2017-08-11T04:19:38.979Z,29.40
2017-08-11T04:22:05.101Z,31.50
2017-08-11T04:24:31.300Z,32.67
2017-08-11T04:26:57.418Z,30.20
2017-08-11T04:29:23.541Z,30.60
2017-08-11T04:31:49.650Z,35.47
2017-08-11T04:34:15.774Z,30.00
2017-08-11T04:36:41.890Z,30.60
2017-08-11T04:39:08.067Z,35.50
2017-08-11T04:41:34.207Z,35.73
2017-08-11T04:44:00.342Z,36.70
2017-08-11T04:46:26.447Z,44.00
2017-08-11T04:48:52.567Z,36.90
2017-08-11T04:51:18.706Z,33.83
2017-08-11T04:53:44.843Z,41.40
2017-08-11T04:56:11.020Z,36.03
2017-08-11T04:58:37.135Z,39.83
2017-08-11T05:01:03.277Z,40.17
2017-08-11T05:03:29.395Z,37.00
2017-08-11T05:05:55.534Z,34.47
2017-08-11T05:08:21.690Z,40.23
2017-08-11T05:10:47.830Z,40.63
2017-08-11T05:13:13.966Z,38.20
2017-08-11T05:15:40.203Z,36.40
2017-08-11T05:18:06.355Z,38.30
2017-08-11T05:20:32.482Z,42.00
2017-08-11T05:23:05.496Z,40.60
2017-08-11T05:25:34.597Z,42.87
2017-08-11T05:28:00.866Z,43.80
2017-08-11T05:30:27.525Z,44.90
2017-08-11T05:32:53.824Z,41.20
2017-08-11T05:35:20.389Z,43.73
2017-08-11T05:37:46.643Z,50.77
2017-08-11T05:40:12.833Z,40.70
2017-08-11T05:42:39.026Z,42.40
2017-08-11T05:45:05.192Z,42.20
2017-08-11T05:47:31.388Z,45.50
2017-08-11T05:49:57.535Z,43.53
2017-08-11T05:52:23.721Z,46.33
2017-08-11T05:54:49.937Z,41.10
2017-08-11T05:57:16.087Z,46.10
2017-08-11T05:59:42.332Z,47.47
2017-08-11T06:02:08.545Z,41.70
2017-08-11T06:04:34.763Z,46.10
2017-08-11T06:07:00.903Z,57.40
2017-08-11T06:09:27.072Z,50.93
2017-08-11T06:11:53.233Z,61.40
2017-08-11T06:14:19.379Z,69.83
2017-08-11T06:16:45.528Z,71.10
2017-08-11T06:19:11.743Z,77.30
2017-08-11T06:21:37.894Z,69.67
2017-08-11T06:24:04.056Z,84.87
2017-08-11T06:26:30.243Z,73.97
2017-08-11T06:28:56.427Z,79.90
2017-08-11T06:31:22.599Z,90.43
2017-08-11T06:33:48.740Z,80.27
2017-08-11T06:36:14.926Z,80.50
2017-08-11T06:38:41.068Z,82.20
2017-08-11T06:41:07.221Z,84.43
2017-08-11T06:43:33.371Z,72.07
2017-08-11T06:46:00.112Z,81.80
2017-08-11T06:48:26.295Z,81.87
2017-08-11T06:50:52.948Z,84.10
2017-08-11T06:53:19.118Z,78.30
2017-08-11T06:55:45.268Z,79.47
2017-08-11T06:58:11.427Z,88.80
2017-08-11T07:00:37.552Z,91.63
2017-08-11T07:03:03.737Z,82.00
2017-08-11T07:05:29.907Z,94.37
2017-08-11T07:07:56.064Z,101.07
2017-08-11T07:10:22.223Z,87.60
2017-08-11T07:12:48.388Z,90.70
2017-08-11T07:15:14.634Z,77.57
2017-08-11T07:17:40.855Z,81.30
2017-08-11T07:20:07.081Z,87.23
2017-08-11T07:22:33.381Z,79.60
2017-08-11T07:24:59.584Z,84.43
2017-08-11T07:27:25.730Z,81.60
2017-08-11T07:29:51.950Z,79.37
2017-08-11T07:32:18.119Z,77.93
2017-08-11T07:34:44.888Z,80.60
2017-08-11T07:37:11.092Z,78.00
2017-08-11T07:39:37.280Z,74.70
2017-08-11T07:42:03.482Z,77.83
2017-08-11T07:44:29.666Z,73.60
2017-08-11T07:46:55.787Z,73.70
2017-08-11T07:49:21.971Z,79.27
2017-08-11T07:51:48.140Z,74.60
2017-08-11T07:54:14.307Z,68.00
2017-08-11T07:56:40.431Z,72.20
2017-08-11T07:59:06.591Z,78.60
2017-08-11T08:01:32.776Z,65.93
2017-08-11T08:03:58.921Z,72.40
2017-08-11T08:06:25.090Z,65.27
2017-08-11T08:08:51.269Z,64.03
2017-08-11T08:11:17.460Z,59.77
2017-08-11T08:13:44.713Z,69.03
2017-08-11T08:16:10.899Z,71.33
2017-08-11T08:18:37.056Z,69.10
2017-08-11T08:21:03.251Z,64.73
2017-08-11T08:23:29.462Z,64.77
2017-08-11T08:25:55.622Z,66.80
2017-08-11T08:28:21.903Z,62.30
2017-08-11T08:30:48.131Z,61.30
2017-08-11T08:33:14.284Z,58.13
2017-08-11T08:35:40.439Z,64.30
2017-08-11T08:38:06.627Z,57.23
2017-08-11T08:40:32.770Z,62.27
2017-08-11T08:42:58.955Z,59.63
2017-08-11T08:45:25.095Z,51.90
2017-08-11T08:47:51.368Z,59.50
2017-08-11T08:50:17.523Z,64.47
2017-08-11T08:52:43.736Z,51.00
2017-08-11T08:55:09.960Z,55.10
2017-08-11T08:57:36.208Z,52.63
2017-08-11T09:00:02.403Z,53.10
2017-08-11T09:02:28.551Z,54.60
2017-08-11T09:04:54.732Z,48.30
2017-08-11T09:07:20.891Z,51.30
2017-08-11T09:09:47.072Z,46.40
2017-08-11T09:12:13.201Z,43.67
2017-08-11T09:14:39.388Z,45.27
2017-08-11T09:17:05.524Z,38.43
2017-08-11T09:19:31.671Z,26.37
2017-08-11T09:21:57.826Z,27.50
2017-08-11T09:24:36.116Z,20.63
2017-08-11T09:27:14.385Z,22.37
2017-08-11T09:30:04.540Z,28.73
2017-08-11T09:32:42.798Z,26.50
2017-08-11T09:35:30.858Z,20.40
2017-08-11T09:37:57.000Z,22.93
2017-08-11T09:40:23.159Z,23.33
2017-08-11T09:42:49.286Z,13.30
2017-08-11T09:45:15.439Z,19.07
2017-08-11T09:47:41.562Z,15.10
2017-08-11T09:50:07.709Z,10.03
2017-08-11T09:52:33.839Z,13.63
2017-08-11T09:54:59.997Z,12.67
2017-08-11T09:57:26.157Z,10.83
2017-08-11T09:59:52.304Z,10.17
2017-08-11T10:02:18.434Z,11.27
2017-08-11T10:04:44.645Z,8.07
2017-08-11T10:07:10.795Z,8.07
2017-08-11T10:09:37.138Z,6.97
2017-08-11T10:12:03.344Z,7.73
2017-08-11T10:14:29.487Z,6.67
2017-08-11T10:16:55.659Z,6.10
2017-08-11T10:19:21.847Z,6.50
2017-08-11T10:21:48.023Z,10.70
2017-08-11T10:24:14.179Z,8.70
2017-08-11T10:26:40.400Z,11.73
2017-08-11T10:29:06.526Z,7.23
2017-08-11T10:31:32.715Z,7.23
2017-08-11T10:33:58.907Z,4.80
2017-08-11T10:36:25.150Z,4.90
2017-08-11T10:38:51.322Z,4.63
2017-08-11T10:41:17.483Z,3.80
2017-08-11T10:43:43.639Z,3.97
2017-08-11T10:46:09.771Z,4.37
2017-08-11T10:48:35.947Z,5.67
2017-08-11T10:51:02.107Z,2.57
2017-08-11T10:53:28.230Z,4.17
2017-08-11T10:55:54.659Z,4.87
2017-08-11T10:58:20.812Z,5.30
2017-08-11T11:00:46.971Z,5.93
2017-08-11T11:03:13.143Z,5.10
2017-08-11T11:05:39.371Z,2.53
2017-08-11T11:08:05.615Z,2.73
2017-08-11T11:10:31.791Z,4.83
2017-08-11T11:12:57.974Z,2.60
2017-08-11T11:15:24.168Z,2.70
2017-08-11T11:17:50.322Z,4.30
2017-08-11T11:20:16.572Z,3.90
2017-08-11T11:22:42.984Z,3.33
2017-08-11T11:25:09.124Z,2.13
2017-08-11T11:27:35.419Z,2.90
2017-08-11T11:30:01.591Z,3.10
2017-08-11T11:32:28.167Z,3.70
2017-08-11T11:34:54.319Z,3.93
2017-08-11T11:37:20.476Z,2.00
2017-08-11T11:39:46.781Z,1.90
2017-08-11T11:42:14.126Z,2.37
2017-08-11T11:44:40.460Z,7.30
2017-08-11T11:47:06.673Z,1.70
2017-08-11T11:49:32.847Z,2.03
2017-08-11T11:51:59.012Z,1.83
2017-08-11T11:54:25.156Z,2.47
2017-08-11T11:56:51.330Z,3.97
2017-08-11T11:59:17.492Z,1.10
2017-08-11T12:01:43.652Z,5.13
2017-08-11T12:04:09.861Z,3.33
2017-08-11T12:06:36.071Z,1.70
2017-08-11T12:09:02.387Z,0.90
2017-08-11T12:11:28.634Z,3.40
2017-08-11T12:13:54.898Z,1.40
2017-08-11T12:16:21.092Z,1.40
2017-08-11T12:18:47.312Z,2.03
2017-08-11T12:21:13.555Z,1.50
2017-08-11T12:23:39.705Z,2.87
2017-08-11T12:26:05.912Z,4.67
2017-08-11T12:28:32.168Z,1.50
2017-08-11T12:30:58.381Z,2.90
2017-08-11T12:33:24.685Z,3.10
2017-08-11T12:35:50.895Z,5.50
2017-08-11T12:38:17.169Z,3.73
2017-08-11T12:40:43.479Z,3.00
2017-08-11T12:43:09.751Z,2.20
2017-08-11T12:45:36.085Z,5.53
2017-08-11T12:48:02.299Z,2.17
2017-08-11T12:50:28.479Z,4.57
2017-08-11T12:52:54.651Z,2.80
2017-08-11T12:55:21.900Z,2.40
2017-08-11T12:57:48.136Z,4.40
2017-08-11T13:00:14.367Z,4.70
2017-08-11T13:02:40.544Z,4.23
2017-08-11T13:05:06.699Z,4.03
2017-08-11T13:07:32.955Z,11.17
2017-08-11T13:09:59.115Z,4.70
2017-08-11T13:12:25.252Z,12.63
2017-08-11T13:14:51.432Z,14.73
2017-08-11T13:17:17.864Z,80.60
2017-08-11T13:19:44.052Z,5.63
2017-08-11T13:22:10.245Z,3.67
2017-08-11T13:24:36.419Z,5.13
2017-08-11T13:27:02.636Z,4.03
2017-08-11T13:29:28.855Z,5.50
2017-08-11T13:32:04.735Z,8.50
2017-08-11T13:34:30.978Z,9.23
2017-08-11T13:36:57.114Z,3.90
2017-08-11T13:39:23.295Z,2.77
2017-08-11T13:41:49.599Z,17.17
2017-08-11T13:44:15.799Z,8.17
2017-08-11T13:46:42.050Z,10.37
2017-08-11T13:49:08.245Z,4.30
2017-08-11T13:51:34.425Z,13.33
2017-08-11T13:54:00.592Z,3.90
2017-08-11T13:56:26.731Z,3.20
2017-08-11T13:58:54.068Z,5.73
2017-08-11T14:01:20.220Z,19.67
2017-08-11T14:03:46.360Z,4.73
2017-08-11T14:06:12.539Z,6.83
2017-08-11T14:08:38.741Z,4.73
2017-08-11T14:11:04.904Z,7.00
2017-08-11T14:13:31.091Z,6.17
2017-08-11T14:15:57.303Z,7.73
2017-08-11T14:18:23.456Z,8.07
2017-08-11T14:20:49.832Z,7.13
2017-08-11T14:23:22.557Z,8.80
2017-08-11T14:25:48.720Z,5.67
2017-08-11T14:28:15.149Z,9.40
2017-08-11T14:30:53.044Z,6.83
2017-08-11T14:33:19.231Z,7.70
2017-08-11T14:35:45.512Z,6.27
2017-08-11T14:38:11.749Z,6.70
2017-08-11T14:40:37.895Z,7.83
2017-08-11T14:43:04.135Z,18.53
2017-08-11T14:45:30.319Z,7.40
2017-08-11T14:47:56.475Z,21.57
2017-08-11T14:50:22.631Z,12.53
2017-08-11T14:52:48.835Z,5.47
2017-08-11T14:55:15.611Z,5.50
2017-08-11T14:57:41.751Z,9.43
2017-08-11T15:00:07.908Z,5.53
2017-08-11T15:02:34.043Z,5.30
2017-08-11T15:05:00.216Z,11.00
2017-08-11T15:07:26.356Z,8.43
2017-08-11T15:09:52.742Z,9.10
2017-08-11T15:12:19.012Z,7.40
2017-08-11T15:14:45.213Z,6.63
2017-08-11T15:17:11.384Z,6.60
2017-08-11T15:19:37.547Z,10.30
2017-08-11T15:22:03.731Z,9.87
2017-08-11T15:24:29.900Z,11.37
2017-08-11T15:26:56.100Z,9.00
2017-08-11T15:29:22.318Z,12.57
2017-08-11T15:31:51.081Z,11.40
2017-08-11T15:34:17.299Z,11.63
2017-08-11T15:36:43.542Z,9.83
2017-08-11T15:39:09.683Z,11.50
2017-08-11T15:41:35.858Z,9.50
2017-08-11T15:44:02.000Z,10.90
2017-08-11T15:46:28.155Z,14.23
2017-08-11T15:48:54.678Z,15.43
2017-08-11T15:51:20.959Z,20.53
2017-08-11T15:53:47.158Z,11.90
2017-08-11T15:56:13.780Z,11.80
2017-08-11T15:58:40.151Z,9.50
2017-08-11T16:01:06.347Z,10.27
2017-08-11T16:03:32.515Z,19.10
2017-08-11T16:05:58.747Z,10.50
2017-08-11T16:08:24.899Z,12.07
2017-08-11T16:10:51.088Z,10.10
2017-08-11T16:13:17.252Z,8.20
2017-08-11T16:15:43.435Z,36.90
2017-08-11T16:18:09.671Z,13.50
2017-08-11T16:20:35.827Z,10.50
2017-08-11T16:23:01.989Z,17.80
2017-08-11T16:25:28.131Z,12.67
2017-08-11T16:27:54.276Z,14.50
2017-08-11T16:30:20.430Z,14.90
2017-08-11T16:32:46.588Z,14.00
2017-08-11T16:35:12.789Z,14.50
2017-08-11T16:37:38.974Z,11.27
2017-08-11T16:40:05.135Z,9.70
2017-08-11T16:42:31.329Z,13.23
2017-08-11T16:44:57.519Z,13.60
2017-08-11T16:47:23.671Z,11.30
2017-08-11T16:49:50.487Z,18.77
2017-08-11T16:52:16.635Z,20.80
2017-08-11T16:54:42.876Z,11.70
2017-08-11T16:57:09.394Z,19.20
2017-08-11T16:59:35.565Z,17.43
2017-08-11T17:02:01.791Z,16.40
2017-08-11T17:04:28.076Z,17.40
2017-08-11T17:06:54.296Z,19.30
2017-08-11T17:09:20.476Z,22.73
2017-08-11T17:11:46.627Z,16.30
2017-08-11T17:14:12.816Z,17.70
2017-08-11T17:16:39.060Z,15.47
2017-08-11T17:19:05.324Z,20.87
2017-08-11T17:21:31.483Z,19.10
2017-08-11T17:23:57.708Z,17.50
2017-08-11T17:26:23.883Z,22.00
2017-08-11T17:28:50.031Z,17.90
2017-08-11T17:31:16.199Z,22.77
2017-08-11T17:33:42.355Z,21.90
2017-08-11T17:36:08.606Z,20.70
2017-08-11T17:38:34.799Z,21.23
2017-08-11T17:41:13.031Z,19.20
2017-08-11T17:43:39.332Z,18.80
2017-08-11T17:46:05.516Z,17.73
2017-08-11T17:48:31.679Z,21.03
2017-08-11T17:50:57.871Z,18.50
2017-08-11T17:53:26.105Z,19.37
2017-08-11T17:55:52.397Z,17.70
2017-08-11T17:58:18.544Z,17.30
2017-08-11T18:00:44.744Z,18.63
2017-08-11T18:03:13.295Z,23.40
2017-08-11T18:05:39.720Z,26.63
2017-08-11T18:08:05.886Z,22.20
2017-08-11T18:10:32.067Z,24.13
2017-08-11T18:12:58.235Z,21.57
2017-08-11T18:15:24.428Z,25.60
2017-08-11T18:17:50.628Z,31.97
2017-08-11T18:20:16.846Z,21.53
2017-08-11T18:22:43.137Z,21.97
2017-08-11T18:25:09.290Z,26.60
2017-08-11T18:27:35.472Z,21.53
2017-08-11T18:30:01.751Z,22.67
2017-08-11T18:32:27.943Z,25.27
2017-08-11T18:34:58.039Z,24.77
2017-08-11T18:37:24.274Z,28.40
2017-08-11T18:39:50.434Z,29.30
2017-08-11T18:42:16.604Z,24.80
2017-08-11T18:44:42.786Z,29.80
2017-08-11T18:47:08.943Z,28.50
2017-08-11T18:49:35.128Z,30.00
2017-08-11T18:52:01.306Z,30.43
2017-08-11T18:54:27.539Z,31.10
2017-08-11T18:56:53.748Z,29.80
2017-08-11T18:59:19.981Z,28.93
2017-08-11T19:01:46.200Z,29.43
2017-08-11T19:04:12.371Z,26.47
2017-08-11T19:06:38.499Z,25.73
2017-08-11T19:09:04.686Z,27.20
2017-08-11T19:11:31.851Z,28.57
2017-08-11T19:13:58.478Z,27.77
2017-08-11T19:16:24.803Z,34.03
2017-08-11T19:18:56.819Z,31.73
2017-08-11T19:21:23.137Z,29.93
2017-08-11T19:23:49.287Z,33.07
2017-08-11T19:26:15.461Z,30.10
2017-08-11T19:28:41.695Z,29.33
2017-08-11T19:31:07.952Z,37.63
2017-08-11T19:33:34.103Z,34.60
2017-08-11T19:36:00.283Z,30.37
2017-08-11T19:38:26.446Z,30.97
2017-08-11T19:40:52.632Z,35.90
2017-08-11T19:43:18.800Z,39.97
2017-08-11T19:45:44.967Z,38.03
2017-08-11T19:48:11.131Z,39.43
2017-08-11T19:50:37.509Z,37.90
2017-08-11T19:53:03.663Z,39.97
2017-08-11T19:55:29.840Z,42.10
2017-08-11T19:57:56.107Z,40.90
2017-08-11T20:00:22.332Z,38.30
2017-08-11T20:02:48.770Z,44.50
2017-08-11T20:05:15.052Z,37.10
2017-08-11T20:07:41.288Z,46.67
2017-08-11T20:10:07.463Z,49.10
2017-08-11T20:12:33.627Z,48.87
2017-08-11T20:14:59.879Z,50.20
2017-08-11T20:17:26.237Z,53.17
2017-08-11T20:19:52.660Z,53.63
2017-08-11T20:22:18.927Z,49.53
2017-08-11T20:24:45.283Z,54.20
2017-08-11T20:27:11.464Z,52.50
2017-08-11T20:29:37.649Z,53.03
2017-08-11T20:32:03.795Z,59.40
2017-08-11T20:34:38.513Z,57.97
2017-08-11T20:37:04.677Z,54.23
2017-08-11T20:39:30.839Z,54.47
2017-08-11T20:41:57.363Z,52.17
2017-08-11T20:47:08.248Z,58.93
2017-08-11T20:49:34.525Z,67.13
2017-08-11T20:52:00.660Z,66.60
2017-08-11T20:54:26.837Z,60.60
2017-08-11T20:56:53.911Z,58.50
2017-08-11T20:59:20.219Z,59.43
2017-08-11T21:01:46.540Z,63.13
2017-08-11T21:04:12.810Z,68.53
2017-08-11T21:06:39.194Z,76.93
2017-08-11T21:09:05.393Z,83.13
2017-08-11T21:11:31.612Z,76.70
2017-08-11T21:13:57.828Z,91.40
2017-08-11T21:16:24.133Z,79.07
2017-08-11T21:18:50.279Z,91.10
2017-08-11T21:21:16.564Z,80.27
2017-08-11T21:23:42.831Z,90.87
2017-08-11T21:26:09.015Z,84.63
2017-08-11T21:28:35.169Z,80.80
2017-08-11T21:31:01.411Z,102.87
2017-08-11T21:33:27.766Z,83.70
2017-08-11T21:35:53.975Z,92.70
2017-08-11T21:38:20.155Z,99.90
2017-08-11T21:40:46.338Z,102.60
2017-08-11T21:43:12.572Z,104.43
2017-08-11T21:45:38.804Z,101.23
2017-08-11T21:48:05.208Z,103.77
2017-08-11T21:50:31.554Z,99.07
2017-08-11T21:52:57.772Z,100.47
2017-08-11T21:55:23.927Z,96.13
2017-08-11T21:57:50.318Z,107.13
2017-08-11T22:00:16.484Z,106.43
2017-08-11T22:02:42.706Z,107.87
2017-08-11T22:05:08.983Z,96.13
2017-08-11T22:07:35.176Z,102.33
2017-08-11T22:10:01.342Z,100.70
2017-08-11T22:12:27.522Z,90.50
2017-08-11T22:14:53.736Z,94.70
2017-08-11T22:17:19.911Z,85.27
2017-08-11T22:19:46.095Z,84.73
2017-08-11T22:22:12.295Z,85.93
2017-08-11T22:24:38.448Z,97.50
2017-08-11T22:27:04.639Z,83.17
2017-08-11T22:29:30.891Z,97.77
2017-08-11T22:31:57.075Z,82.53
2017-08-11T22:34:25.570Z,90.43
2017-08-11T22:36:51.775Z,79.30
2017-08-11T22:39:17.956Z,82.60
2017-08-11T22:41:44.152Z,88.90
2017-08-11T22:44:10.416Z,77.93
2017-08-11T22:46:36.618Z,78.67
2017-08-11T22:49:02.803Z,78.43
2017-08-11T22:51:29.155Z,80.00
2017-08-11T22:53:55.316Z,83.30
2017-08-11T22:56:21.460Z,74.60
2017-08-11T23:01:41.662Z,73.80
2017-08-11T23:04:11.603Z,73.40
2017-08-11T23:06:37.842Z,71.80
2017-08-11T23:09:04.003Z,73.80
2017-08-11T23:11:30.242Z,77.13
2017-08-11T23:13:56.509Z,76.37
2017-08-11T23:16:22.730Z,72.57
2017-08-11T23:18:48.863Z,71.20
2017-08-11T23:21:15.016Z,78.70
2017-08-11T23:23:41.274Z,76.80
2017-08-11T23:26:07.561Z,74.33
2017-08-11T23:28:34.704Z,73.33
2017-08-11T23:31:01.251Z,77.03
2017-08-11T23:33:27.468Z,79.30
2017-08-11T23:35:53.633Z,75.27
2017-08-11T23:38:19.791Z,76.40
2017-08-11T23:40:45.959Z,70.53
2017-08-11T23:43:12.291Z,71.70
2017-08-11T23:45:38.461Z,77.67
2017-08-11T23:48:04.622Z,79.27
2017-08-11T23:50:30.926Z,79.33
2017-08-11T23:52:57.675Z,78.17
2017-08-11T23:55:23.868Z,79.40
2017-08-11T23:57:51.877Z,77.40
